Terminal Aerodrome Forecast
Issued by NWS

Home | Current Version | Previous Version | Text Only | Print | Product List | Glossary On
Versions: 1 2 3 4 5 6 7 8 9 10 11 12 13
446
FTUS45 KTFX 262338
TAFHLN
TAF
KHLN 262338Z 2700/2724 VRB05KT P6SM VCSH SCT040 BKN100
     FM270200 VRB05KT P6SM BKN050
     FM270900 27008KT P6SM VCSH BKN050
     FM271600 28010G20KT P6SM VCSH BKN050=

USA.gov is the U.S. government's official web portal to all federal, state and local government web resources and services.